createdAt,value
2019-05-22T00:01:46.769Z,3.300000
2019-05-22T00:04:17.146Z,4.400000
2019-05-22T00:06:47.640Z,4.400000
2019-05-22T00:09:18.154Z,5.100000
2019-05-22T00:11:48.525Z,5.100000
2019-05-22T00:14:18.906Z,4.100000
2019-05-22T00:16:49.220Z,4.100000
2019-05-22T00:19:19.604Z,4.900000
2019-05-22T00:21:49.989Z,4.900000
2019-05-22T00:24:20.495Z,4.600000
2019-05-22T00:26:50.990Z,4.600000
2019-05-22T00:29:21.375Z,4.600000
2019-05-22T00:31:51.780Z,4.600000
2019-05-22T00:34:22.276Z,5.900000
2019-05-22T00:36:52.569Z,5.900000
2019-05-22T00:39:22.983Z,2.700000
2019-05-22T00:41:53.362Z,2.700000
2019-05-22T00:44:23.843Z,4.100000
2019-05-22T00:46:54.145Z,4.100000
2019-05-22T00:49:24.447Z,3.700000
2019-05-22T00:51:54.850Z,3.700000
2019-05-22T00:54:25.231Z,3.700000
2019-05-22T00:56:55.677Z,3.700000
2019-05-22T00:59:26.030Z,2.400000
2019-05-22T01:01:56.617Z,2.400000
2019-05-22T01:04:27.016Z,3.200000
2019-05-22T01:06:57.394Z,3.200000
2019-05-22T01:09:27.887Z,4.400000
2019-05-22T01:11:58.272Z,4.400000
2019-05-22T01:14:42.049Z,2.700000
2019-05-22T01:17:13.480Z,2.700000
2019-05-22T01:19:43.854Z,3.500000
2019-05-22T01:22:14.154Z,3.500000
2019-05-22T01:24:44.581Z,4.700000
2019-05-22T01:27:15.034Z,4.700000
2019-05-22T01:29:45.525Z,3.500000
2019-05-22T01:32:15.877Z,3.500000
2019-05-22T01:34:46.265Z,2.800000
2019-05-22T01:37:16.555Z,2.800000
2019-05-22T01:39:46.885Z,3.300000
2019-05-22T01:42:17.134Z,3.300000
2019-05-22T01:45:00.674Z,3.900000
2019-05-22T01:47:36.596Z,2.300000
2019-05-22T01:50:06.933Z,2.300000
2019-05-22T01:52:37.275Z,3.700000
2019-05-22T01:55:07.757Z,3.700000
2019-05-22T01:57:38.175Z,4.700000
2019-05-22T02:00:08.517Z,4.700000
2019-05-22T02:02:38.826Z,3.500000
2019-05-22T02:05:09.200Z,3.500000
2019-05-22T02:07:39.584Z,3.800000
2019-05-22T02:10:09.854Z,3.800000
2019-05-22T02:12:45.190Z,4.200000
2019-05-22T02:15:15.404Z,4.200000
2019-05-22T02:17:45.687Z,3.900000
2019-05-22T02:20:15.971Z,3.900000
2019-05-22T02:22:46.343Z,4.300000
2019-05-22T02:25:16.737Z,4.300000
2019-05-22T02:27:47.092Z,4.600000
2019-05-22T02:30:22.396Z,4.600000
2019-05-22T02:32:52.764Z,5.500000
2019-05-22T02:35:23.107Z,5.500000
2019-05-22T02:37:53.408Z,4.000000
2019-05-22T02:40:23.708Z,4.000000
2019-05-22T02:42:54.098Z,4.400000
2019-05-22T02:45:24.419Z,4.400000
2019-05-22T02:47:54.661Z,5.300000
2019-05-22T02:50:25.134Z,5.300000
2019-05-22T02:52:55.593Z,4.400000
2019-05-22T02:55:25.956Z,4.400000
2019-05-22T02:57:56.266Z,4.900000
2019-05-22T03:00:26.742Z,4.900000
2019-05-22T03:02:57.127Z,3.300000
2019-05-22T03:05:27.407Z,3.300000
2019-05-22T03:07:57.801Z,3.000000
2019-05-22T03:10:28.081Z,3.000000
2019-05-22T03:12:58.546Z,5.000000
2019-05-22T03:15:28.945Z,5.000000
2019-05-22T03:17:59.362Z,4.300000
2019-05-22T03:20:29.810Z,4.300000
2019-05-22T03:23:00.177Z,4.000000
2019-05-22T03:25:30.477Z,4.000000
2019-05-22T03:28:00.883Z,2.800000
2019-05-22T03:30:31.259Z,2.800000
2019-05-22T03:33:01.976Z,2.300000
2019-05-22T03:35:32.397Z,2.300000
2019-05-22T03:38:02.749Z,3.000000
2019-05-22T03:40:33.032Z,3.000000
2019-05-22T03:43:03.399Z,2.800000
2019-05-22T03:45:33.805Z,2.800000
2019-05-22T03:48:04.162Z,2.900000
2019-05-22T03:50:34.636Z,2.900000
2019-05-22T03:53:04.915Z,2.900000
2019-05-22T03:55:35.283Z,2.900000
2019-05-22T03:58:05.568Z,4.200000
2019-05-22T04:00:35.942Z,4.200000
2019-05-22T04:03:06.273Z,2.800000
2019-05-22T04:05:36.587Z,2.800000
2019-05-22T04:08:06.971Z,2.900000
2019-05-22T04:10:40.974Z,2.900000
2019-05-22T04:13:11.783Z,5.000000
2019-05-22T04:15:42.389Z,5.000000
2019-05-22T04:18:12.852Z,4.000000
2019-05-22T04:20:48.313Z,4.000000
2019-05-22T04:23:18.746Z,5.600000
2019-05-22T04:25:53.147Z,5.600000
2019-05-22T04:28:24.033Z,1.700000
2019-05-22T04:30:54.504Z,1.700000
2019-05-22T04:33:24.968Z,2.300000
2019-05-22T04:35:55.230Z,2.300000
2019-05-22T04:38:25.618Z,3.800000
2019-05-22T04:40:55.989Z,3.800000
2019-05-22T04:43:26.382Z,1.600000
2019-05-22T04:45:56.752Z,1.600000
2019-05-22T04:48:27.049Z,1.700000
2019-05-22T04:51:02.487Z,1.700000
2019-05-22T04:53:33.043Z,3.200000
2019-05-22T04:56:03.506Z,3.200000
2019-05-22T04:58:38.864Z,3.600000
2019-05-22T05:01:09.219Z,3.600000
2019-05-22T05:03:39.686Z,2.000000
2019-05-22T05:06:10.231Z,2.000000
2019-05-22T05:08:40.917Z,2.400000
2019-05-22T05:11:11.192Z,2.400000
2019-05-22T05:13:41.565Z,3.100000
2019-05-22T05:16:11.855Z,3.100000
2019-05-22T05:18:42.306Z,2.000000
2019-05-22T05:21:12.720Z,2.000000
2019-05-22T05:23:43.106Z,3.100000
2019-05-22T05:26:13.480Z,3.100000
2019-05-22T05:28:43.966Z,2.100000
2019-05-22T05:31:14.440Z,2.100000
2019-05-22T05:33:44.744Z,2.700000
2019-05-22T05:36:15.028Z,2.700000
2019-05-22T05:38:45.315Z,2.500000
2019-05-22T05:41:15.699Z,2.500000
2019-05-22T05:43:46.114Z,2.800000
2019-05-22T05:46:16.399Z,2.800000
2019-05-22T05:48:46.813Z,2.000000
2019-05-22T05:51:17.217Z,2.000000
2019-05-22T05:53:47.468Z,2.100000
2019-05-22T05:56:17.913Z,2.100000
2019-05-22T05:58:48.210Z,2.000000
2019-05-22T06:01:18.801Z,2.000000
2019-05-22T06:03:49.171Z,2.000000
2019-05-22T06:06:19.569Z,2.000000
2019-05-22T06:08:50.123Z,2.400000
2019-05-22T06:11:20.531Z,2.400000
2019-05-22T06:13:50.894Z,2.500000
2019-05-22T06:16:21.385Z,2.500000
2019-05-22T06:18:51.710Z,1.500000
2019-05-22T06:21:22.015Z,1.500000
2019-05-22T06:23:52.425Z,1.500000
2019-05-22T06:26:22.748Z,1.500000
2019-05-22T06:28:53.042Z,3.700000
2019-05-22T06:31:23.505Z,2.800000
2019-05-22T06:33:53.885Z,2.800000
2019-05-22T06:36:24.592Z,3.200000
2019-05-22T06:38:55.732Z,3.200000
2019-05-22T06:41:26.213Z,1.400000
2019-05-22T06:43:56.662Z,1.400000
2019-05-22T06:46:26.958Z,2.400000
2019-05-22T06:48:57.283Z,2.400000
2019-05-22T06:51:27.608Z,0.900000
2019-05-22T06:53:57.940Z,0.900000
2019-05-22T06:56:28.272Z,1.700000
2019-05-22T06:58:58.589Z,1.700000
2019-05-22T07:01:33.986Z,2.300000
2019-05-22T07:04:04.365Z,2.300000
2019-05-22T07:06:34.688Z,1.400000
2019-05-22T07:09:05.093Z,1.400000
2019-05-22T07:11:35.464Z,1.600000
2019-05-22T07:14:05.844Z,1.600000
2019-05-22T07:16:36.254Z,1.600000
2019-05-22T07:19:07.594Z,1.600000
2019-05-22T07:21:37.959Z,1.000000
2019-05-22T07:24:08.240Z,1.000000
2019-05-22T07:26:38.519Z,2.200000
2019-05-22T07:29:08.903Z,2.200000
2019-05-22T07:31:39.367Z,2.100000
2019-05-22T07:34:09.743Z,2.100000
2019-05-22T07:36:40.142Z,1.900000
2019-05-22T07:39:10.432Z,1.900000
2019-05-22T07:41:40.856Z,2.800000
2019-05-22T07:44:11.329Z,2.800000
2019-05-22T07:46:41.740Z,2.500000
2019-05-22T07:49:12.070Z,2.500000
2019-05-22T07:51:54.023Z,2.200000
2019-05-22T07:54:28.291Z,2.200000
2019-05-22T07:56:59.770Z,2.100000
2019-05-22T07:59:30.386Z,2.100000
2019-05-22T08:02:01.016Z,1.700000
2019-05-22T08:04:31.399Z,1.700000
2019-05-22T08:07:02.378Z,1.300000
2019-05-22T08:09:37.788Z,1.300000
2019-05-22T08:12:08.086Z,1.700000
2019-05-22T08:14:38.545Z,1.700000
2019-05-22T08:17:08.920Z,1.300000
2019-05-22T08:19:39.318Z,1.300000
2019-05-22T08:22:09.915Z,1.800000
2019-05-22T08:24:40.259Z,1.800000
2019-05-22T08:27:10.750Z,1.100000
2019-05-22T08:29:41.154Z,1.100000
2019-05-22T08:32:11.622Z,1.600000
2019-05-22T08:34:41.951Z,1.600000
2019-05-22T08:37:12.346Z,1.300000
2019-05-22T08:39:42.828Z,1.300000
2019-05-22T08:42:13.143Z,2.100000
2019-05-22T08:44:43.473Z,2.100000
2019-05-22T08:47:13.753Z,1.400000
2019-05-22T08:49:44.119Z,1.400000
2019-05-22T08:52:22.930Z,1.300000
2019-05-22T08:54:54.294Z,1.300000
2019-05-22T08:57:24.713Z,1.900000
2019-05-22T08:59:55.374Z,1.900000
2019-05-22T09:02:25.630Z,1.200000
2019-05-22T09:04:56.118Z,1.200000
2019-05-22T09:07:26.540Z,1.300000
2019-05-22T09:09:57.148Z,1.300000
2019-05-22T09:12:27.519Z,1.100000
2019-05-22T09:14:57.925Z,1.100000
2019-05-22T09:17:28.330Z,1.000000
2019-05-22T09:19:58.824Z,1.000000
2019-05-22T09:22:40.270Z,1.800000
2019-05-22T09:25:11.674Z,1.800000
2019-05-22T09:27:42.022Z,1.600000
2019-05-22T09:30:12.424Z,1.600000
2019-05-22T09:32:42.690Z,1.600000
2019-05-22T09:35:13.099Z,1.600000
2019-05-22T09:37:43.476Z,1.200000
2019-05-22T09:40:13.808Z,1.200000
2019-05-22T09:42:44.266Z,1.200000
2019-05-22T09:45:14.612Z,1.200000
2019-05-22T09:47:45.070Z,1.900000
2019-05-22T09:50:15.453Z,1.900000
2019-05-22T09:52:56.916Z,0.900000
2019-05-22T09:55:28.577Z,0.900000
2019-05-22T09:57:58.916Z,1.600000
2019-05-22T10:00:29.266Z,1.600000
2019-05-22T10:02:59.592Z,1.700000
2019-05-22T10:05:30.047Z,1.700000
2019-05-22T10:08:01.579Z,1.400000
2019-05-22T10:10:32.311Z,1.400000
2019-05-22T10:13:02.634Z,1.300000
2019-05-22T10:15:33.052Z,1.300000
2019-05-22T10:18:03.396Z,1.400000
2019-05-22T10:20:33.709Z,1.400000
2019-05-22T10:23:14.880Z,0.900000
2019-05-22T10:25:46.327Z,0.900000
2019-05-22T10:28:17.011Z,1.300000
2019-05-22T10:30:47.346Z,1.300000
2019-05-22T10:33:17.741Z,2.500000
2019-05-22T10:35:48.334Z,2.500000
2019-05-22T10:38:18.709Z,1.800000
2019-05-22T10:40:49.063Z,1.800000
2019-05-22T10:43:19.512Z,1.400000
2019-05-22T10:45:50.086Z,1.400000
2019-05-22T10:48:20.429Z,2.000000
2019-05-22T10:50:50.799Z,2.000000
2019-05-22T10:53:33.122Z,0.900000
2019-05-22T10:56:04.598Z,1.500000
2019-05-22T10:58:34.856Z,1.500000
2019-05-22T11:01:05.190Z,1.800000
2019-05-22T11:03:35.539Z,1.800000
2019-05-22T11:06:07.506Z,1.700000
2019-05-22T11:08:38.234Z,1.700000
2019-05-22T11:11:08.505Z,1.300000
2019-05-22T11:13:38.938Z,1.300000
2019-05-22T11:16:09.431Z,2.400000
2019-05-22T11:18:39.825Z,2.400000
2019-05-22T11:21:10.163Z,1.800000
2019-05-22T11:23:51.123Z,1.800000
2019-05-22T11:26:23.264Z,1.800000
2019-05-22T11:28:53.594Z,1.800000
2019-05-22T11:31:23.948Z,2.100000
2019-05-22T11:33:54.383Z,2.100000
2019-05-22T11:36:24.710Z,2.200000
2019-05-22T11:38:55.059Z,2.200000
2019-05-22T11:41:25.498Z,2.600000
2019-05-22T11:43:55.919Z,2.600000
2019-05-22T11:46:26.637Z,1.900000
2019-05-22T11:48:57.019Z,1.900000
2019-05-22T11:51:27.415Z,3.700000
2019-05-22T11:54:08.733Z,3.700000
2019-05-22T11:56:39.881Z,2.500000
2019-05-22T11:59:10.204Z,2.500000
2019-05-22T12:01:40.538Z,3.000000
2019-05-22T12:04:10.877Z,3.000000
2019-05-22T12:06:41.209Z,3.000000
2019-05-22T12:09:11.644Z,3.000000
2019-05-22T12:11:43.324Z,2.500000
2019-05-22T12:14:13.941Z,2.500000
2019-05-22T12:16:44.328Z,2.100000
2019-05-22T12:19:14.639Z,2.100000
2019-05-22T12:21:45.072Z,2.600000
2019-05-22T12:24:27.023Z,2.600000
2019-05-22T12:26:59.099Z,2.500000
2019-05-22T12:29:29.531Z,2.500000
2019-05-22T12:32:00.162Z,2.700000
2019-05-22T12:34:30.674Z,2.700000
2019-05-22T12:37:01.165Z,3.300000
2019-05-22T12:39:31.732Z,3.300000
2019-05-22T12:42:02.126Z,3.400000
2019-05-22T12:44:32.596Z,3.400000
2019-05-22T12:47:03.010Z,2.300000
2019-05-22T12:49:33.531Z,2.300000
2019-05-22T12:52:03.870Z,5.000000
2019-05-22T12:54:45.892Z,5.000000
2019-05-22T12:57:18.923Z,1.700000
2019-05-22T12:59:49.246Z,1.700000
2019-05-22T13:02:19.583Z,2.400000
2019-05-22T13:04:50.018Z,2.400000
2019-05-22T13:07:20.521Z,4.000000
2019-05-22T13:09:50.974Z,4.000000
2019-05-22T13:12:21.409Z,3.300000
2019-05-22T13:15:08.298Z,3.300000
2019-05-22T13:17:40.362Z,2.200000
2019-05-22T13:20:10.897Z,2.200000
2019-05-22T13:22:41.300Z,3.100000
2019-05-22T13:25:11.702Z,3.100000
2019-05-22T13:27:42.028Z,3.100000
2019-05-22T13:30:12.427Z,3.100000
2019-05-22T13:32:42.663Z,4.200000
2019-05-22T13:35:18.082Z,4.200000
2019-05-22T13:37:48.438Z,2.400000
2019-05-22T13:40:27.667Z,2.400000
2019-05-22T13:42:58.390Z,2.200000
2019-05-22T13:45:29.995Z,2.200000
2019-05-22T13:48:00.726Z,3.800000
2019-05-22T13:50:31.237Z,3.800000
2019-05-22T13:53:01.792Z,2.900000
2019-05-22T13:55:32.213Z,2.900000
2019-05-22T13:58:02.782Z,2.200000
2019-05-22T14:00:33.163Z,2.200000
2019-05-22T14:03:03.611Z,3.000000
2019-05-22T14:05:36.072Z,3.000000
2019-05-22T14:08:06.489Z,3.500000
2019-05-22T14:10:39.114Z,3.500000
2019-05-22T14:13:09.477Z,3.500000
2019-05-22T14:15:51.999Z,3.500000
2019-05-22T14:18:25.198Z,5.400000
2019-05-22T14:20:55.601Z,5.400000
2019-05-22T14:23:26.004Z,6.300000
2019-05-22T14:25:56.423Z,6.300000
2019-05-22T14:28:26.856Z,3.100000
2019-05-22T14:30:59.275Z,3.900000
2019-05-22T14:33:29.666Z,3.900000
2019-05-22T14:36:00.132Z,6.800000
2019-05-22T14:38:30.498Z,6.800000
2019-05-22T14:41:00.840Z,6.100000
2019-05-22T14:43:31.592Z,6.100000
2019-05-22T14:46:01.901Z,6.100000
2019-05-22T14:48:32.331Z,6.100000
2019-05-22T14:51:02.653Z,8.000000
2019-05-22T14:53:33.098Z,8.000000
2019-05-22T14:56:03.498Z,2.700000
2019-05-22T14:58:33.862Z,2.700000
2019-05-22T15:01:04.364Z,5.700000
2019-05-22T15:03:34.934Z,5.700000
2019-05-22T15:06:05.216Z,2.500000
2019-05-22T15:08:36.133Z,2.500000
2019-05-22T15:11:06.527Z,4.700000
2019-05-22T15:13:36.891Z,4.700000
2019-05-22T15:16:08.061Z,4.300000
2019-05-22T15:18:38.403Z,4.300000
2019-05-22T15:21:08.772Z,2.800000
2019-05-22T15:23:39.309Z,2.800000
2019-05-22T15:26:09.661Z,5.400000
2019-05-22T15:28:41.097Z,5.400000
2019-05-22T15:31:11.518Z,3.100000
2019-05-22T15:33:41.942Z,3.100000
2019-05-22T15:36:12.247Z,4.000000
2019-05-22T15:38:43.103Z,4.000000
2019-05-22T15:41:13.398Z,3.300000
2019-05-22T15:43:44.657Z,3.300000
2019-05-22T15:46:15.332Z,3.600000
2019-05-22T15:48:45.729Z,3.600000
2019-05-22T15:51:16.357Z,3.600000
2019-05-22T15:53:46.626Z,3.600000
2019-05-22T15:56:16.913Z,6.000000
2019-05-22T15:58:47.792Z,6.000000
2019-05-22T16:01:18.262Z,2.300000
2019-05-22T16:03:48.634Z,2.300000
2019-05-22T16:06:19.113Z,3.400000
2019-05-22T16:08:49.401Z,3.400000
2019-05-22T16:11:19.807Z,3.400000
2019-05-22T16:13:50.329Z,3.400000
2019-05-22T16:16:20.626Z,1.800000
2019-05-22T16:18:51.097Z,1.800000
2019-05-22T16:21:23.510Z,2.100000
2019-05-22T16:23:53.940Z,2.100000
2019-05-22T16:26:24.363Z,2.200000
2019-05-22T16:28:54.646Z,2.200000
2019-05-22T16:31:25.092Z,1.300000
2019-05-22T16:33:55.431Z,1.300000
2019-05-22T16:36:25.926Z,2.800000
2019-05-22T16:38:56.403Z,2.800000
2019-05-22T16:41:26.661Z,1.700000
2019-05-22T16:43:56.992Z,1.700000
2019-05-22T16:46:27.316Z,2.100000
2019-05-22T16:48:57.663Z,2.100000
2019-05-22T16:51:28.108Z,2.400000
2019-05-22T16:53:58.543Z,2.400000
2019-05-22T16:56:28.852Z,2.100000
2019-05-22T16:58:59.083Z,2.100000
2019-05-22T17:01:29.577Z,4.000000
2019-05-22T17:04:00.234Z,4.000000
2019-05-22T17:06:30.643Z,2.100000
2019-05-22T17:09:00.969Z,2.100000
2019-05-22T17:11:31.392Z,2.500000
2019-05-22T17:14:01.800Z,2.500000
2019-05-22T17:16:32.203Z,2.200000
2019-05-22T17:19:02.582Z,2.200000
2019-05-22T17:21:32.959Z,1.700000
2019-05-22T17:24:03.450Z,1.700000
2019-05-22T17:26:33.885Z,2.200000
2019-05-22T17:29:04.375Z,2.200000
2019-05-22T17:31:34.840Z,1.200000
2019-05-22T17:34:05.219Z,1.200000
2019-05-22T17:36:35.900Z,1.500000
2019-05-22T17:39:06.219Z,1.500000
2019-05-22T17:41:36.567Z,1.100000
2019-05-22T17:44:06.831Z,1.100000
2019-05-22T17:46:37.204Z,1.800000
2019-05-22T17:49:07.585Z,1.800000
2019-05-22T17:51:38.052Z,1.400000
2019-05-22T17:54:08.451Z,1.400000
2019-05-22T17:56:38.799Z,3.500000
2019-05-22T17:59:09.043Z,3.500000
2019-05-22T18:01:39.406Z,2.200000
2019-05-22T18:04:09.864Z,2.200000
2019-05-22T18:06:40.228Z,1.600000
2019-05-22T18:09:10.703Z,1.600000
2019-05-22T18:11:41.162Z,2.700000
2019-05-22T18:14:11.735Z,2.700000
2019-05-22T18:16:42.246Z,3.300000
2019-05-22T18:19:12.904Z,3.300000
2019-05-22T18:21:43.388Z,1.500000
2019-05-22T18:24:14.789Z,1.500000
2019-05-22T18:26:45.189Z,3.900000
2019-05-22T18:29:15.429Z,3.900000
2019-05-22T18:31:45.901Z,2.300000
2019-05-22T18:34:16.234Z,2.300000
2019-05-22T18:36:46.478Z,1.900000
2019-05-22T18:39:16.819Z,1.900000
2019-05-22T18:41:52.219Z,2.600000
2019-05-22T18:44:22.989Z,2.600000
2019-05-22T18:46:53.439Z,2.500000
2019-05-22T18:49:23.813Z,2.500000
2019-05-22T18:51:54.293Z,1.900000
2019-05-22T18:54:24.748Z,1.900000
2019-05-22T18:56:55.261Z,3.500000
2019-05-22T18:59:26.069Z,3.500000
2019-05-22T19:01:56.507Z,1.800000
2019-05-22T19:04:28.012Z,1.800000
2019-05-22T19:06:58.771Z,2.800000
2019-05-22T19:09:29.186Z,2.800000
2019-05-22T19:11:59.635Z,2.300000
2019-05-22T19:14:30.274Z,2.300000
2019-05-22T19:17:00.602Z,2.000000
2019-05-22T19:19:30.871Z,2.000000
2019-05-22T19:22:01.188Z,1.800000
2019-05-22T19:24:32.027Z,1.800000
2019-05-22T19:27:03.388Z,1.900000
2019-05-22T19:29:34.472Z,1.900000
2019-05-22T19:32:05.981Z,3.400000
2019-05-22T19:34:36.247Z,3.400000
2019-05-22T19:37:06.878Z,2.000000
2019-05-22T19:39:37.362Z,2.000000
2019-05-22T19:42:11.562Z,2.000000
2019-05-22T19:44:45.180Z,2.000000
2019-05-22T19:47:15.486Z,2.400000
2019-05-22T19:49:45.879Z,2.400000
2019-05-22T19:52:22.280Z,2.100000
2019-05-22T19:54:53.184Z,2.100000
2019-05-22T19:57:26.571Z,2.000000
2019-05-22T19:59:57.094Z,2.000000
2019-05-22T20:02:29.162Z,1.600000
2019-05-22T20:05:00.240Z,1.600000
2019-05-22T20:07:30.818Z,2.400000
2019-05-22T20:10:01.260Z,2.400000
2019-05-22T20:12:31.778Z,1.600000
2019-05-22T20:15:02.456Z,1.600000
2019-05-22T20:17:33.468Z,3.000000
2019-05-22T20:20:03.925Z,3.000000
2019-05-22T20:22:34.468Z,1.700000
2019-05-22T20:25:06.251Z,1.700000
2019-05-22T20:27:38.196Z,2.100000
2019-05-22T20:30:08.529Z,2.100000
2019-05-22T20:32:39.030Z,2.700000
2019-05-22T20:35:09.397Z,2.700000
2019-05-22T20:37:39.699Z,2.300000
2019-05-22T20:40:10.552Z,2.300000
2019-05-22T20:42:41.164Z,4.300000
2019-05-22T20:45:11.542Z,4.300000
2019-05-22T20:47:42.429Z,2.000000
2019-05-22T20:50:12.715Z,2.000000
2019-05-22T20:52:44.203Z,2.400000
2019-05-22T20:55:14.573Z,2.500000
2019-05-22T20:57:44.852Z,2.500000
2019-05-22T21:00:15.203Z,2.000000
2019-05-22T21:02:45.711Z,2.000000
2019-05-22T21:05:16.321Z,2.200000
2019-05-22T21:07:47.250Z,2.200000
2019-05-22T21:10:17.773Z,2.200000
2019-05-22T21:12:48.201Z,2.200000
2019-05-22T21:15:23.582Z,3.100000
2019-05-22T21:17:53.931Z,3.100000
2019-05-22T21:20:24.392Z,3.500000
2019-05-22T21:22:54.683Z,3.500000
2019-05-22T21:25:25.321Z,2.300000
2019-05-22T21:27:55.728Z,2.300000
2019-05-22T21:30:26.213Z,3.600000
2019-05-22T21:32:56.664Z,3.600000
2019-05-22T21:35:27.029Z,3.300000
2019-05-22T21:37:57.404Z,3.300000
2019-05-22T21:40:27.875Z,2.400000
2019-05-22T21:42:58.232Z,2.400000
2019-05-22T21:45:28.616Z,2.400000
2019-05-22T21:47:59.057Z,2.400000
2019-05-22T21:50:29.617Z,2.100000
2019-05-22T21:52:59.970Z,2.100000
2019-05-22T21:55:30.328Z,2.500000
2019-05-22T21:58:00.687Z,2.500000
2019-05-22T22:00:30.937Z,3.100000
2019-05-22T22:03:01.312Z,3.100000
2019-05-22T22:05:31.850Z,2.400000
2019-05-22T22:08:02.339Z,2.400000
2019-05-22T22:10:32.851Z,3.000000
2019-05-22T22:13:07.411Z,3.000000
2019-05-22T22:15:38.149Z,2.200000
2019-05-22T22:18:08.620Z,2.200000
2019-05-22T22:20:41.046Z,3.800000
2019-05-22T22:23:16.461Z,3.800000
2019-05-22T22:25:46.757Z,3.400000
2019-05-22T22:28:17.022Z,3.400000
2019-05-22T22:30:47.385Z,2.600000
2019-05-22T22:33:17.789Z,2.600000
2019-05-22T22:35:48.100Z,3.200000
2019-05-22T22:38:18.547Z,3.200000
2019-05-22T22:40:48.909Z,3.600000
2019-05-22T22:43:19.238Z,3.600000
2019-05-22T22:45:49.501Z,2.400000
2019-05-22T22:48:19.963Z,2.400000
2019-05-22T22:50:50.213Z,3.600000
2019-05-22T22:53:20.751Z,3.600000
2019-05-22T22:55:51.105Z,2.900000
2019-05-22T22:58:21.528Z,2.900000
2019-05-22T23:00:51.903Z,2.700000
2019-05-22T23:03:22.227Z,2.700000
2019-05-22T23:05:52.566Z,3.900000
2019-05-22T23:08:22.997Z,3.900000
2019-05-22T23:10:53.338Z,3.200000
2019-05-22T23:13:23.891Z,3.200000
2019-05-22T23:15:54.253Z,3.100000
2019-05-22T23:18:25.037Z,3.100000
2019-05-22T23:20:55.310Z,3.000000
2019-05-22T23:23:25.644Z,3.000000
2019-05-22T23:25:56.064Z,2.700000
2019-05-22T23:28:34.866Z,2.700000
2019-05-22T23:31:05.577Z,3.900000
2019-05-22T23:33:36.086Z,3.900000
2019-05-22T23:36:06.510Z,4.300000
2019-05-22T23:38:36.827Z,4.300000
2019-05-22T23:41:07.147Z,3.800000
2019-05-22T23:43:37.655Z,3.800000
2019-05-22T23:46:08.097Z,4.100000
2019-05-22T23:48:38.504Z,4.100000
2019-05-22T23:51:08.934Z,5.400000
2019-05-22T23:53:39.182Z,5.400000
2019-05-22T23:56:09.581Z,4.100000
2019-05-22T23:58:52.130Z,4.100000
